createdAt,value
2022-08-10T00:01:51.460Z,0.35
2022-08-10T00:04:23.594Z,0.50
2022-08-10T00:06:55.010Z,0.30
2022-08-10T00:09:23.778Z,0.47
2022-08-10T00:11:51.342Z,0.40
2022-08-10T00:14:19.223Z,0.45
2022-08-10T00:16:46.402Z,0.50
2022-08-10T00:19:16.581Z,0.32
2022-08-10T00:21:44.906Z,0.68
2022-08-10T00:24:11.970Z,0.40
2022-08-10T00:27:52.603Z,0.40
2022-08-10T00:29:26.311Z,0.43
2022-08-10T00:31:57.997Z,0.77
2022-08-10T00:34:31.656Z,0.90
2022-08-10T00:37:00.358Z,0.65
2022-08-10T00:39:29.269Z,0.60
2022-08-10T00:42:06.741Z,0.50
2022-08-10T00:44:46.422Z,0.55
2022-08-10T00:47:17.451Z,0.50
2022-08-10T00:50:02.462Z,0.40
2022-08-10T00:52:31.170Z,0.63
2022-08-10T00:54:59.113Z,0.60
2022-08-10T00:57:27.055Z,0.45
2022-08-10T00:59:58.954Z,0.50
2022-08-10T01:02:29.773Z,0.40
2022-08-10T01:05:01.312Z,0.47
2022-08-10T01:07:40.464Z,0.40
2022-08-10T01:10:37.404Z,0.60
2022-08-10T01:13:17.640Z,0.45
2022-08-10T01:16:00.494Z,0.60
2022-08-10T01:18:53.687Z,0.43
2022-08-10T01:21:41.846Z,0.40
2022-08-10T01:24:29.224Z,0.52
2022-08-10T01:27:12.179Z,0.65
2022-08-10T01:29:58.041Z,0.60
2022-08-10T01:35:10.463Z,0.50
2022-08-10T01:37:44.152Z,0.50
2022-08-10T01:40:25.185Z,0.40
2022-08-10T01:42:54.834Z,0.43
2022-08-10T01:45:26.780Z,0.40
2022-08-10T01:48:16.929Z,0.38
2022-08-10T01:50:59.102Z,0.30
2022-08-10T01:53:40.971Z,0.50
2022-08-10T01:56:13.122Z,0.40
2022-08-10T01:58:42.400Z,0.40
2022-08-10T02:01:17.115Z,0.40
2022-08-10T02:04:01.334Z,0.60
2022-08-10T02:06:37.170Z,0.40
2022-08-10T02:09:07.207Z,0.40
2022-08-10T02:12:05.645Z,0.50
2022-08-10T02:14:34.822Z,0.43
2022-08-10T02:17:06.555Z,0.50
2022-08-10T02:19:36.583Z,0.57
2022-08-10T02:22:36.697Z,0.50
2022-08-10T02:24:53.240Z,0.70
2022-08-10T02:27:23.538Z,0.73
2022-08-10T02:29:52.862Z,0.55
2022-08-10T02:32:36.125Z,0.40
2022-08-10T02:35:22.238Z,0.32
2022-08-10T02:37:53.043Z,0.90
2022-08-10T02:45:03.203Z,0.40
2022-08-10T02:45:19.341Z,0.30
2022-08-10T02:46:26.359Z,0.50
2022-08-10T02:49:05.109Z,0.40
2022-08-10T02:52:06.890Z,0.47
2022-08-10T02:54:45.670Z,0.50
2022-08-10T02:57:33.559Z,0.32
2022-08-10T03:00:06.907Z,0.40
2022-08-10T03:02:41.034Z,0.40
2022-08-10T03:05:11.589Z,0.32
2022-08-10T03:07:48.910Z,0.40
2022-08-10T03:10:25.769Z,0.40
2022-08-10T03:12:57.669Z,0.40
2022-08-10T03:15:27.444Z,0.40
2022-08-10T03:17:57.213Z,0.30
2022-08-10T03:20:37.083Z,0.20
2022-08-10T03:23:19.701Z,0.50
2022-08-10T03:25:53.313Z,0.50
2022-08-10T03:28:23.367Z,0.30
2022-08-10T03:30:51.131Z,0.40
2022-08-10T03:33:20.462Z,0.88
2022-08-10T03:36:43.508Z,0.50
2022-08-10T03:38:35.577Z,0.30
2022-08-10T03:41:05.638Z,0.30
2022-08-10T03:43:34.409Z,0.40
2022-08-10T03:46:06.315Z,0.40
2022-08-10T03:48:49.204Z,0.32
2022-08-10T03:51:19.471Z,0.35
2022-08-10T03:54:05.815Z,0.30
2022-08-10T03:56:38.958Z,0.50
2022-08-10T03:59:10.089Z,0.35
2022-08-10T04:02:47.062Z,0.40
2022-08-10T04:04:25.792Z,0.52
2022-08-10T04:06:55.714Z,0.40
2022-08-10T04:09:43.120Z,0.30
2022-08-10T04:12:13.064Z,0.40
2022-08-10T04:14:49.294Z,0.40
2022-08-10T04:17:57.031Z,0.40
2022-08-10T04:20:31.490Z,0.30
2022-08-10T04:23:09.041Z,0.40
2022-08-10T04:25:38.428Z,0.40
2022-08-10T04:28:07.258Z,0.45
2022-08-10T04:30:36.422Z,0.30
2022-08-10T04:33:06.693Z,0.65
2022-08-10T04:35:35.326Z,0.32
2022-08-10T04:38:04.199Z,0.40
2022-08-10T04:40:32.028Z,0.50
2022-08-10T04:43:11.646Z,0.50
2022-08-10T04:45:48.397Z,0.30
2022-08-10T04:48:42.945Z,0.38
2022-08-10T04:51:17.902Z,0.40
2022-08-10T04:54:04.170Z,0.45
2022-08-10T04:56:36.453Z,0.40
2022-08-10T04:59:05.309Z,0.52
2022-08-10T05:02:12.283Z,0.40
2022-08-10T05:04:35.324Z,0.40
2022-08-10T05:07:16.721Z,0.40
2022-08-10T05:10:02.032Z,0.63
2022-08-10T05:12:38.548Z,0.50
2022-08-10T05:15:11.811Z,0.47
2022-08-10T05:17:40.197Z,0.75
2022-08-10T05:20:09.645Z,0.60
2022-08-10T05:22:41.973Z,0.68
2022-08-10T05:25:12.687Z,0.63
2022-08-10T05:27:40.759Z,0.70
2022-08-10T05:30:10.359Z,0.73
2022-08-10T05:32:55.580Z,0.80
2022-08-10T05:35:25.654Z,0.80
2022-08-10T05:38:09.314Z,0.70
2022-08-10T05:40:46.710Z,0.80
2022-08-10T05:43:20.935Z,0.80
2022-08-10T05:46:19.509Z,0.60
2022-08-10T05:48:55.910Z,0.63
2022-08-10T05:51:26.182Z,0.60
2022-08-10T05:54:01.893Z,0.77
2022-08-10T05:56:57.118Z,1.15
2022-08-10T06:00:33.149Z,0.60
2022-08-10T06:02:38.370Z,0.60
2022-08-10T06:05:21.367Z,0.70
2022-08-10T06:08:02.282Z,0.50
2022-08-10T06:10:32.939Z,0.73
2022-08-10T06:13:29.815Z,0.60
2022-08-10T06:16:07.805Z,0.70
2022-08-10T06:18:37.461Z,0.52
2022-08-10T06:21:06.451Z,0.82
2022-08-10T06:23:34.575Z,0.60
2022-08-10T06:26:12.119Z,0.73
2022-08-10T06:29:03.589Z,0.50
2022-08-10T06:31:49.065Z,0.40
2022-08-10T06:34:28.012Z,0.70
2022-08-10T06:36:58.187Z,0.50
2022-08-10T06:39:35.560Z,0.40
2022-08-10T06:42:16.444Z,0.50
2022-08-10T06:45:00.560Z,1.15
2022-08-10T06:47:41.720Z,0.57
2022-08-10T06:50:35.112Z,0.50
2022-08-10T06:53:05.492Z,0.60
2022-08-10T06:55:49.618Z,0.35
2022-08-10T06:58:26.559Z,0.57
2022-08-10T07:00:56.757Z,0.50
2022-08-10T07:03:30.906Z,0.32
2022-08-10T07:05:59.512Z,0.30
2022-08-10T07:08:29.199Z,0.60
2022-08-10T07:10:56.503Z,0.38
2022-08-10T07:14:17.272Z,0.60
2022-08-10T07:16:14.906Z,0.40
2022-08-10T07:18:44.682Z,0.30
2022-08-10T07:21:13.535Z,0.60
2022-08-10T07:23:58.977Z,0.45
2022-08-10T07:26:28.947Z,0.60
2022-08-10T07:28:57.109Z,0.50
2022-08-10T07:31:54.861Z,0.60
2022-08-10T07:34:28.486Z,0.60
2022-08-10T07:37:02.073Z,0.63
2022-08-10T07:40:03.022Z,0.70
2022-08-10T07:42:22.158Z,0.65
2022-08-10T07:44:50.866Z,0.60
2022-08-10T07:47:52.403Z,0.60
2022-08-10T07:50:13.980Z,0.70
2022-08-10T07:52:42.643Z,0.95
2022-08-10T07:55:15.253Z,0.60
2022-08-10T07:57:44.552Z,0.60
2022-08-10T08:00:12.906Z,0.45
2022-08-10T08:02:52.541Z,0.80
2022-08-10T08:05:27.616Z,0.70
2022-08-10T08:08:16.246Z,0.52
2022-08-10T08:10:43.649Z,0.93
2022-08-10T08:13:11.970Z,0.60
2022-08-10T08:16:17.499Z,0.60
2022-08-10T08:18:29.495Z,0.80
2022-08-10T08:20:58.727Z,1.00
2022-08-10T08:24:07.522Z,0.60
2022-08-10T08:26:18.630Z,0.95
2022-08-10T08:28:46.430Z,0.73
2022-08-10T08:31:15.647Z,0.77
2022-08-10T08:33:45.812Z,0.60
2022-08-10T08:36:16.669Z,0.70
2022-08-10T08:38:44.768Z,0.70
2022-08-10T08:41:45.915Z,0.65
2022-08-10T08:45:02.336Z,0.60
2022-08-10T08:48:06.739Z,0.70
2022-08-10T08:51:10.795Z,0.52
2022-08-10T08:54:01.246Z,0.70
2022-08-10T08:57:04.558Z,0.70
2022-08-10T08:59:59.145Z,0.73
2022-08-10T09:02:41.232Z,0.73
2022-08-10T09:05:59.772Z,0.60
2022-08-10T09:08:32.495Z,0.70
2022-08-10T09:11:08.570Z,0.80
2022-08-10T09:13:42.631Z,0.68
2022-08-10T09:16:47.267Z,0.60
2022-08-10T09:19:35.384Z,0.70
2022-08-10T09:22:34.117Z,0.70
2022-08-10T09:25:23.638Z,0.85
2022-08-10T09:28:01.375Z,0.70
2022-08-10T09:31:18.762Z,0.50
2022-08-10T09:36:24.974Z,0.70
2022-08-10T09:36:33.142Z,0.40
2022-08-10T09:40:12.494Z,0.50
2022-08-10T09:43:23.432Z,0.45
2022-08-10T09:46:03.150Z,0.75
2022-08-10T09:48:45.995Z,0.50
2022-08-10T09:51:47.097Z,0.50
2022-08-10T09:54:42.931Z,0.60
2022-08-10T09:57:51.900Z,0.68
2022-08-10T10:00:33.090Z,0.65
2022-08-10T10:03:17.002Z,0.60
2022-08-10T10:06:04.427Z,0.57
2022-08-10T10:08:45.846Z,0.43
2022-08-10T10:11:26.749Z,0.38
2022-08-10T10:14:24.190Z,0.60
2022-08-10T10:17:02.612Z,0.50
2022-08-10T10:19:52.851Z,0.60
2022-08-10T10:22:59.177Z,0.45
2022-08-10T10:29:06.769Z,0.57
2022-08-10T10:31:42.683Z,0.82
2022-08-10T10:34:16.659Z,0.52
2022-08-10T10:36:46.190Z,0.70
2022-08-10T10:39:15.528Z,0.52
2022-08-10T10:41:56.354Z,0.70
2022-08-10T10:44:41.976Z,0.47
2022-08-10T10:47:26.779Z,0.88
2022-08-10T10:50:13.775Z,0.50
2022-08-10T10:53:12.801Z,0.88
2022-08-10T10:56:15.680Z,0.50
2022-08-10T10:58:43.635Z,0.70
2022-08-10T11:01:22.836Z,0.65
2022-08-10T11:03:53.501Z,0.60
2022-08-10T11:06:40.395Z,0.80
2022-08-10T11:10:04.062Z,0.57
2022-08-10T11:12:27.438Z,0.50
2022-08-10T11:15:31.533Z,0.50
2022-08-10T11:18:36.729Z,0.70
2022-08-10T11:21:13.716Z,0.68
2022-08-10T11:24:49.103Z,0.80
2022-08-10T11:26:45.056Z,1.05
2022-08-10T11:29:37.234Z,1.00
2022-08-10T11:32:20.751Z,1.05
2022-08-10T11:35:20.466Z,1.40
2022-08-10T11:38:31.958Z,0.90
2022-08-10T11:42:05.433Z,0.90
2022-08-10T11:43:57.124Z,0.90
2022-08-10T11:46:57.134Z,0.77
2022-08-10T11:49:45.919Z,0.88
2022-08-10T11:52:26.429Z,0.70
2022-08-10T11:55:03.397Z,0.70
2022-08-10T11:57:54.332Z,0.50
2022-08-10T12:00:19.938Z,0.70
2022-08-10T12:02:54.250Z,0.50
2022-08-10T12:05:21.498Z,0.60
2022-08-10T12:10:01.877Z,0.73
2022-08-10T12:10:42.828Z,1.08
2022-08-10T12:13:53.894Z,0.63
2022-08-10T12:16:31.823Z,0.90
2022-08-10T12:18:58.892Z,0.77
2022-08-10T12:21:40.703Z,0.80
2022-08-10T12:24:26.065Z,0.60
2022-08-10T12:27:05.213Z,0.73
2022-08-10T12:29:52.262Z,0.57
2022-08-10T12:32:52.027Z,0.70
2022-08-10T12:36:14.974Z,0.70
2022-08-10T12:39:02.673Z,0.70
2022-08-10T12:41:53.101Z,0.80
2022-08-10T12:44:42.383Z,0.50
2022-08-10T12:47:14.154Z,0.50
2022-08-10T12:50:31.280Z,0.68
2022-08-10T12:53:09.269Z,0.73
2022-08-10T12:55:39.895Z,0.88
2022-08-10T12:58:59.990Z,0.70
2022-08-10T13:01:16.107Z,0.93
2022-08-10T13:04:21.607Z,0.50
2022-08-10T13:06:41.760Z,0.60
2022-08-10T13:09:09.485Z,0.80
2022-08-10T13:12:35.007Z,0.80
2022-08-10T13:14:55.484Z,0.60
2022-08-10T13:17:39.343Z,0.60
2022-08-10T13:20:30.093Z,0.50
2022-08-10T13:23:01.516Z,0.57
2022-08-10T13:25:32.447Z,0.60
2022-08-10T13:28:37.769Z,0.50
2022-08-10T13:30:51.300Z,0.55
2022-08-10T13:34:03.709Z,0.60
2022-08-10T13:36:16.348Z,0.70
2022-08-10T13:38:48.869Z,0.70
2022-08-10T13:41:18.631Z,0.60
2022-08-10T13:43:57.278Z,0.80
2022-08-10T13:46:25.440Z,0.70
2022-08-10T13:48:54.042Z,0.80
2022-08-10T13:51:57.320Z,0.80
2022-08-10T13:54:14.089Z,0.70
2022-08-10T13:56:47.574Z,0.80
2022-08-10T13:59:16.601Z,0.77
2022-08-10T14:01:52.348Z,0.80
2022-08-10T14:04:20.323Z,1.00
2022-08-10T14:06:54.572Z,0.80
2022-08-10T14:09:33.256Z,1.23
2022-08-10T14:12:01.443Z,0.95
2022-08-10T14:14:31.481Z,1.00
2022-08-10T14:17:00.242Z,0.88
2022-08-10T14:19:39.366Z,0.98
2022-08-10T14:22:10.822Z,1.30
2022-08-10T14:24:38.113Z,1.27
2022-08-10T14:27:08.372Z,1.00
2022-08-10T14:29:44.760Z,0.98
2022-08-10T14:32:15.199Z,1.10
2022-08-10T14:36:15.553Z,0.75
2022-08-10T14:37:43.388Z,0.70
2022-08-10T14:40:15.819Z,0.50
2022-08-10T14:42:55.692Z,0.77
2022-08-10T14:45:29.853Z,0.50
2022-08-10T14:48:11.633Z,0.60
2022-08-10T14:50:55.892Z,0.40
2022-08-10T14:53:29.556Z,0.30
2022-08-10T14:56:09.802Z,0.43
2022-08-10T14:58:58.954Z,0.30
2022-08-10T15:01:26.984Z,0.40
2022-08-10T15:04:18.209Z,0.77
2022-08-10T15:07:01.322Z,0.40
2022-08-10T15:10:00.594Z,0.40
2022-08-10T15:12:26.629Z,0.40
2022-08-10T15:14:58.599Z,0.43
2022-08-10T15:17:35.509Z,0.30
2022-08-10T15:20:20.808Z,0.35
2022-08-10T15:22:54.454Z,0.50
2022-08-10T15:25:26.294Z,0.40
2022-08-10T15:28:13.307Z,0.45
2022-08-10T15:30:51.762Z,0.35
2022-08-10T15:36:46.164Z,0.50
2022-08-10T15:40:23.897Z,0.70
2022-08-10T15:42:24.035Z,0.40
2022-08-10T15:44:54.117Z,0.47
2022-08-10T15:47:45.097Z,0.50
2022-08-10T15:50:32.323Z,0.40
2022-08-10T15:53:07.231Z,0.65
2022-08-10T15:55:46.025Z,0.63
2022-08-10T15:58:42.852Z,0.38
2022-08-10T16:02:14.354Z,0.60
2022-08-10T16:04:31.953Z,0.60
2022-08-10T16:07:12.663Z,0.50
2022-08-10T16:10:24.841Z,0.60
2022-08-10T16:14:00.790Z,0.85
2022-08-10T16:15:56.860Z,1.05
2022-08-10T16:18:29.314Z,1.42
2022-08-10T16:20:59.930Z,1.60
2022-08-10T16:23:31.395Z,1.60
2022-08-10T16:26:05.347Z,1.50
2022-08-10T16:28:59.754Z,2.22
2022-08-10T16:31:30.783Z,1.58
2022-08-10T16:34:00.934Z,1.60
2022-08-10T16:36:42.131Z,1.75
2022-08-10T16:39:18.003Z,1.40
2022-08-10T16:42:18.964Z,1.75
2022-08-10T16:45:02.526Z,1.88
2022-08-10T16:47:32.570Z,1.75
2022-08-10T16:50:03.512Z,2.15
2022-08-10T16:52:33.455Z,1.95
2022-08-10T16:55:24.727Z,1.90
2022-08-10T16:58:08.337Z,1.80
2022-08-10T17:00:36.699Z,1.75
2022-08-10T17:04:04.356Z,1.33
2022-08-10T17:06:09.967Z,1.48
2022-08-10T17:08:48.272Z,1.42
2022-08-10T17:11:18.547Z,1.75
2022-08-10T17:13:46.089Z,1.92
2022-08-10T17:16:17.069Z,1.45
2022-08-10T17:18:48.162Z,1.70
2022-08-10T17:21:24.592Z,1.80
2022-08-10T17:23:55.473Z,2.10
2022-08-10T17:26:36.021Z,1.90
2022-08-10T17:29:53.382Z,1.55
2022-08-10T17:32:20.763Z,2.20
2022-08-10T17:34:53.055Z,1.80
2022-08-10T17:37:24.619Z,1.50
2022-08-10T17:40:17.335Z,1.50
2022-08-10T17:42:49.911Z,1.70
2022-08-10T17:45:46.998Z,1.60
2022-08-10T17:48:12.641Z,1.40
2022-08-10T17:50:42.838Z,1.50
2022-08-10T17:53:16.297Z,1.40
2022-08-10T17:55:46.133Z,1.40
2022-08-10T17:58:18.690Z,1.70
2022-08-10T18:00:51.456Z,1.85
2022-08-10T18:03:26.132Z,1.20
2022-08-10T18:06:00.423Z,1.50
2022-08-10T18:08:41.265Z,1.48
2022-08-10T18:11:13.036Z,1.90
2022-08-10T18:13:56.229Z,1.48
2022-08-10T18:16:30.512Z,1.40
2022-08-10T18:19:07.228Z,1.13
2022-08-10T18:21:38.415Z,1.17
2022-08-10T18:24:16.092Z,1.00
2022-08-10T18:26:47.826Z,1.30
2022-08-10T18:29:28.419Z,1.23
2022-08-10T18:31:59.364Z,1.50
2022-08-10T18:34:28.387Z,1.38
2022-08-10T18:36:57.147Z,1.20
2022-08-10T18:39:37.418Z,1.10
2022-08-10T18:42:18.471Z,1.17
2022-08-10T18:44:53.602Z,1.00
2022-08-10T18:47:36.821Z,1.15
2022-08-10T18:50:12.356Z,1.20
2022-08-10T18:52:43.338Z,1.10
2022-08-10T18:55:35.467Z,1.02
2022-08-10T18:58:45.668Z,1.10
2022-08-10T19:01:40.530Z,0.90
2022-08-10T19:04:27.676Z,1.30
2022-08-10T19:07:07.662Z,1.38
2022-08-10T19:09:56.380Z,1.23
2022-08-10T19:12:29.910Z,0.70
2022-08-10T19:15:10.993Z,0.68
2022-08-10T19:18:06.476Z,0.98
2022-08-10T19:20:51.252Z,0.70
2022-08-10T19:23:27.688Z,0.70
2022-08-10T19:26:43.074Z,1.00
2022-08-10T19:30:09.134Z,0.70
2022-08-10T19:32:31.676Z,0.77
2022-08-10T19:35:11.167Z,0.80
2022-08-10T19:38:00.353Z,0.90
2022-08-10T19:40:53.159Z,0.68
2022-08-10T19:43:59.084Z,0.80
2022-08-10T19:46:33.092Z,0.80
2022-08-10T19:49:09.097Z,0.90
2022-08-10T19:52:11.450Z,0.70
2022-08-10T19:54:53.151Z,0.95
2022-08-10T19:57:34.693Z,0.90
2022-08-10T20:00:18.839Z,0.70
2022-08-10T20:03:18.277Z,0.77
2022-08-10T20:06:13.123Z,0.70
2022-08-10T20:08:54.549Z,0.73
2022-08-10T20:11:55.667Z,0.88
2022-08-10T20:14:43.596Z,0.88
2022-08-10T20:17:23.275Z,1.00
2022-08-10T20:20:05.805Z,1.00
2022-08-10T20:22:39.341Z,1.10
2022-08-10T20:25:16.767Z,1.08
2022-08-10T20:28:05.297Z,1.15
2022-08-10T20:30:38.441Z,1.10
2022-08-10T20:33:08.563Z,0.70
2022-08-10T20:35:49.251Z,0.95
2022-08-10T20:38:58.255Z,0.90
2022-08-10T20:41:43.848Z,1.08
2022-08-10T20:44:25.695Z,0.90
2022-08-10T20:47:19.744Z,0.93
2022-08-10T20:50:07.361Z,0.90
2022-08-10T20:52:36.807Z,0.77
2022-08-10T20:55:08.904Z,0.75
2022-08-10T20:58:14.510Z,1.10
2022-08-10T21:00:46.779Z,1.00
2022-08-10T21:03:43.787Z,0.98
2022-08-10T21:06:43.377Z,1.10
2022-08-10T21:09:18.830Z,0.98
2022-08-10T21:12:07.513Z,0.68
2022-08-10T21:15:01.355Z,0.70
2022-08-10T21:17:34.048Z,1.05
2022-08-10T21:20:31.037Z,0.90
2022-08-10T21:25:42.318Z,1.00
2022-08-10T21:26:09.453Z,0.98
2022-08-10T21:29:01.412Z,0.90
2022-08-10T21:31:46.656Z,0.77
2022-08-10T21:34:32.070Z,0.70
2022-08-10T21:37:20.274Z,0.88
2022-08-10T21:40:34.761Z,0.90
2022-08-10T21:43:59.032Z,0.60
2022-08-10T21:46:58.943Z,0.90
2022-08-10T21:50:22.346Z,0.65
2022-08-10T21:53:43.544Z,1.05
2022-08-10T21:56:32.366Z,0.82
2022-08-10T21:59:24.712Z,0.68
2022-08-10T22:02:17.397Z,0.60
2022-08-10T22:05:03.377Z,0.85
2022-08-10T22:07:50.934Z,1.00
2022-08-10T22:10:39.270Z,0.95
2022-08-10T22:13:25.792Z,0.80
2022-08-10T22:16:16.662Z,0.70
2022-08-10T22:19:13.466Z,0.90
2022-08-10T22:22:27.495Z,0.90
2022-08-10T22:25:22.676Z,0.63
2022-08-10T22:28:17.620Z,1.10
2022-08-10T22:31:31.537Z,1.10
2022-08-10T22:34:42.825Z,0.88
2022-08-10T22:37:45.618Z,1.20
2022-08-10T22:40:42.765Z,0.88
2022-08-10T22:43:42.626Z,0.95
2022-08-10T22:46:49.298Z,1.08
2022-08-10T22:49:23.498Z,0.90
2022-08-10T22:52:06.574Z,0.90
2022-08-10T22:54:58.202Z,0.68
2022-08-10T22:57:44.397Z,0.73
2022-08-10T23:00:16.164Z,0.93
2022-08-10T23:02:57.725Z,0.77
2022-08-10T23:05:34.538Z,0.82
2022-08-10T23:08:30.542Z,0.82
2022-08-10T23:13:36.229Z,1.10
2022-08-10T23:16:32.371Z,0.73
2022-08-10T23:19:14.462Z,1.05
2022-08-10T23:22:07.340Z,1.00
2022-08-10T23:25:00.929Z,0.85
2022-08-10T23:27:38.556Z,0.80
2022-08-10T23:30:16.988Z,1.35
2022-08-10T23:32:52.131Z,0.90
2022-08-10T23:36:29.787Z,1.38
2022-08-10T23:38:14.519Z,1.23
2022-08-10T23:40:47.729Z,0.90
2022-08-10T23:43:46.636Z,1.02
2022-08-10T23:46:15.957Z,1.20
2022-08-10T23:48:46.908Z,1.35
2022-08-10T23:51:16.553Z,1.85
2022-08-10T23:53:48.431Z,1.55
2022-08-10T23:56:22.250Z,1.27
2022-08-10T23:58:54.113Z,1.45
